createdAt,value
2018-07-02T00:01:49.557Z,65.8
2018-07-02T00:06:46.917Z,66
2018-07-02T00:11:47.331Z,65.9
2018-07-02T00:16:44.854Z,66
2018-07-02T00:21:42.117Z,66
2018-07-02T00:26:39.456Z,65.7
2018-07-02T00:31:37.361Z,65.8
2018-07-02T00:36:34.922Z,66
2018-07-02T00:41:32.870Z,66
2018-07-02T00:46:30.294Z,66.1
2018-07-02T00:51:28.232Z,65.5
2018-07-02T00:56:26.041Z,65.3
2018-07-02T01:01:23.590Z,65.5
2018-07-02T01:06:21.196Z,65.6
2018-07-02T01:11:19.143Z,65.6
2018-07-02T01:16:16.938Z,66.3
2018-07-02T01:21:14.562Z,66
2018-07-02T01:26:13.079Z,66.7
2018-07-02T01:31:10.847Z,67.2
2018-07-02T01:36:08.591Z,67.3
2018-07-02T01:41:06.576Z,67.2
2018-07-02T01:46:04.541Z,67.3
2018-07-02T01:51:02.698Z,67.6
2018-07-02T01:55:59.910Z,67.5
2018-07-02T02:00:57.818Z,67.2
2018-07-02T02:05:55.034Z,67.5
2018-07-02T02:10:52.579Z,67.7
2018-07-02T02:15:50.557Z,67.7
2018-07-02T02:20:48.172Z,67.6
2018-07-02T02:25:46.274Z,67.5
2018-07-02T02:30:44.154Z,67.8
2018-07-02T02:35:42.508Z,68
2018-07-02T02:40:40.603Z,68.3
2018-07-02T02:45:38.198Z,68.2
2018-07-02T02:50:36.475Z,68
2018-07-02T02:55:34.390Z,68.1
2018-07-02T03:00:32.555Z,68.4
2018-07-02T03:05:30.637Z,68
2018-07-02T03:10:28.771Z,67.7
2018-07-02T03:15:26.094Z,68.1
2018-07-02T03:20:23.924Z,68.3
2018-07-02T03:25:22.402Z,69.1
2018-07-02T03:30:20.665Z,69.9
2018-07-02T03:35:18.623Z,69.8
2018-07-02T03:40:16.973Z,70.3
2018-07-02T03:45:15.650Z,69.8
2018-07-02T03:50:14.114Z,69.9
2018-07-02T03:55:12.119Z,70.5
2018-07-02T04:00:10.895Z,70.4
2018-07-02T04:05:08.713Z,70
2018-07-02T04:10:06.959Z,70.4
2018-07-02T04:15:05.934Z,70.3
2018-07-02T04:20:03.691Z,70.7
2018-07-02T04:25:01.254Z,71
2018-07-02T04:29:59.451Z,70.9
2018-07-02T04:34:57.165Z,70.8
2018-07-02T04:39:55.261Z,70.6
2018-07-02T04:44:53.215Z,69.8
2018-07-02T04:49:51.791Z,69.8
2018-07-02T04:54:50.233Z,70
2018-07-02T04:59:48.548Z,70.1
2018-07-02T05:04:46.594Z,69.9
2018-07-02T05:09:44.694Z,69.7
2018-07-02T05:14:42.529Z,69.6
2018-07-02T05:19:40.576Z,69.5
2018-07-02T05:24:38.556Z,69.3
2018-07-02T05:29:38.428Z,69.6
2018-07-02T05:34:35.298Z,69.9
2018-07-02T05:39:35.596Z,69.4
2018-07-02T05:44:32.801Z,68.9
2018-07-02T05:49:30.707Z,69
2018-07-02T05:54:30.327Z,68.9
2018-07-02T05:59:27.560Z,68.4
2018-07-02T06:04:25.079Z,68.7
2018-07-02T06:09:22.961Z,68.1
2018-07-02T06:14:20.709Z,66.8
2018-07-02T06:19:18.346Z,66.3
2018-07-02T06:24:16.091Z,66.7
2018-07-02T06:29:13.277Z,67.6
2018-07-02T06:34:11.075Z,67.4
2018-07-02T06:39:08.805Z,67.7
2018-07-02T06:44:06.349Z,67.4
2018-07-02T06:49:03.826Z,66.9
2018-07-02T06:54:01.676Z,66.8
2018-07-02T06:58:59.522Z,66.8
2018-07-02T07:03:57.040Z,66.7
2018-07-02T07:08:55.281Z,65.9
2018-07-02T07:13:53.051Z,65.9
2018-07-02T07:18:50.595Z,66.1
2018-07-02T07:23:48.120Z,66.3
2018-07-02T07:28:45.212Z,65.8
2018-07-02T07:33:42.891Z,66
2018-07-02T07:38:40.252Z,66.1
2018-07-02T07:43:38.031Z,65.7
2018-07-02T07:48:35.666Z,65.8
2018-07-02T07:53:33.214Z,65.5
2018-07-02T07:58:31.159Z,65.8
2018-07-02T08:03:29.217Z,65.6
2018-07-02T08:08:26.830Z,65.4
2018-07-02T08:13:24.290Z,65.3
2018-07-02T08:18:22.280Z,64.7
2018-07-02T08:23:20.367Z,64.5
2018-07-02T08:28:18.192Z,64.5
2018-07-02T08:33:16.458Z,64.8
2018-07-02T08:38:14.123Z,64.9
2018-07-02T08:43:12.241Z,64.1
2018-07-02T08:48:09.489Z,63.6
2018-07-02T08:53:07.754Z,63.9
2018-07-02T08:58:05.284Z,63.4
2018-07-02T09:03:03.154Z,63.9
2018-07-02T09:08:01.112Z,63.6
2018-07-02T09:12:58.734Z,63
2018-07-02T09:17:56.472Z,62.5
2018-07-02T09:22:54.467Z,62.8
2018-07-02T09:27:52.888Z,62.2
2018-07-02T09:32:50.127Z,62.4
2018-07-02T09:37:47.932Z,62.3
2018-07-02T09:42:46.133Z,62.2
2018-07-02T09:47:43.375Z,61.5
2018-07-02T09:52:41.616Z,61.1
2018-07-02T09:57:39.279Z,60.8
2018-07-02T10:02:37.033Z,60.4
2018-07-02T10:07:35.170Z,59.4
2018-07-02T10:12:32.961Z,59
2018-07-02T10:17:30.626Z,58.5
2018-07-02T10:22:28.729Z,58.5
2018-07-02T10:27:27.013Z,58.4
2018-07-02T10:32:24.718Z,58.1
2018-07-02T10:37:22.419Z,58.2
2018-07-02T10:42:20.952Z,58.7
2018-07-02T10:47:18.883Z,58.6
2018-07-02T10:52:16.733Z,58.2
2018-07-02T10:57:15.061Z,58.1
2018-07-02T11:02:12.893Z,58.1
2018-07-02T11:07:10.595Z,57.4
2018-07-02T11:12:08.492Z,57.6
2018-07-02T11:17:06.515Z,57.2
2018-07-02T11:22:03.907Z,56.9
2018-07-02T11:27:02.012Z,55.3
2018-07-02T11:32:00.560Z,55
2018-07-02T11:36:57.769Z,55.1
2018-07-02T11:41:56.048Z,54.5
2018-07-02T11:46:53.835Z,54.7
2018-07-02T11:51:51.780Z,54.5
2018-07-02T11:56:49.848Z,54.2
2018-07-02T12:01:47.756Z,53.3
2018-07-02T12:48:25.129Z,51.6
2018-07-02T12:53:22.679Z,52.6
2018-07-02T12:58:20.076Z,52.5
2018-07-02T13:03:18.347Z,52.7
2018-07-02T13:08:17.154Z,52.4
2018-07-02T13:13:15.076Z,51.4
2018-07-02T13:18:13.315Z,49.8
2018-07-02T14:41:20.725Z,49.1
2018-07-02T14:46:17.422Z,49.7
2018-07-02T14:51:15.526Z,49.3
2018-07-02T14:56:13.981Z,48.6
2018-07-02T15:01:12.455Z,48.2
2018-07-02T15:06:10.387Z,48.2
2018-07-02T15:11:08.819Z,48
2018-07-02T15:16:05.708Z,47
2018-07-02T15:21:03.274Z,47.3
2018-07-02T15:26:01.564Z,47
2018-07-02T15:31:00.496Z,46.7
2018-07-02T15:35:58.198Z,47.1
2018-07-02T15:40:57.062Z,47.5
2018-07-02T15:45:54.830Z,47.4
2018-07-02T15:50:52.508Z,47.3
2018-07-02T15:55:52.023Z,47.6
2018-07-02T16:00:50.485Z,48
2018-07-02T16:05:48.576Z,47.7
2018-07-02T16:10:46.330Z,47.2
2018-07-02T16:15:45.108Z,47.4
2018-07-02T16:20:42.830Z,47.4
2018-07-02T16:25:40.672Z,47.4
2018-07-02T16:30:38.783Z,47.1
2018-07-02T16:35:37.324Z,47.3
2018-07-02T16:40:35.558Z,48.9
2018-07-02T16:45:34.505Z,49.4
2018-07-02T16:50:32.400Z,49.8
2018-07-02T16:55:30.037Z,50.3
2018-07-02T17:00:27.862Z,50.5
2018-07-02T17:05:26.309Z,50.7
2018-07-02T17:10:23.605Z,51.1
2018-07-02T17:15:21.187Z,51.4
2018-07-02T17:20:19.233Z,52
2018-07-02T17:25:17.450Z,52.1
2018-07-02T17:30:15.022Z,52.7
2018-07-02T17:35:14.339Z,52.7
2018-07-02T17:40:13.004Z,52.7
2018-07-02T17:45:11.827Z,52.9
2018-07-02T17:50:09.851Z,52.8
2018-07-02T17:55:07.567Z,52.7
2018-07-02T18:00:05.557Z,52.9
2018-07-02T18:05:03.748Z,53.1
2018-07-02T18:10:01.461Z,53.2
2018-07-02T18:14:59.250Z,53.4
2018-07-02T18:19:56.740Z,53.5
2018-07-02T18:24:54.012Z,53.9
2018-07-02T18:29:51.934Z,54.2
2018-07-02T18:34:50.145Z,54.3
2018-07-02T18:39:48.063Z,54.5
2018-07-02T18:44:46.264Z,54.7
2018-07-02T18:49:43.954Z,54.7
2018-07-02T18:54:41.639Z,55
2018-07-02T18:59:39.630Z,55.2
2018-07-02T19:04:37.885Z,55.2
2018-07-02T19:09:35.626Z,55.1
2018-07-02T19:14:33.932Z,55.3
2018-07-02T19:19:31.314Z,55.5
2018-07-02T19:24:29.918Z,55.4
2018-07-02T19:29:26.495Z,55.7
2018-07-02T19:34:24.497Z,55.8
2018-07-02T19:39:22.250Z,56
2018-07-02T19:44:20.530Z,56.2
2018-07-02T19:49:18.924Z,56.3
2018-07-02T19:54:17.118Z,56.6
2018-07-02T19:59:14.904Z,56.7
2018-07-02T20:04:12.901Z,56.9
2018-07-02T20:09:11.877Z,57.2
2018-07-02T20:14:09.708Z,57.3
2018-07-02T20:19:07.755Z,57.7
2018-07-02T20:24:05.552Z,57.8
2018-07-02T20:29:03.284Z,58.1
2018-07-02T20:34:02.157Z,58.3
2018-07-02T20:38:59.812Z,58.4
2018-07-02T20:43:57.786Z,59
2018-07-02T20:48:56.320Z,59.3
2018-07-02T20:53:54.529Z,59.5
2018-07-02T20:58:52.548Z,60.1
2018-07-02T21:03:50.639Z,60
2018-07-02T21:08:48.734Z,61
2018-07-02T21:13:45.253Z,61.1
2018-07-02T21:18:42.573Z,60.8
2018-07-02T21:23:40.224Z,61
2018-07-02T21:28:38.133Z,61.4
2018-07-02T21:33:35.802Z,61.7
2018-07-02T21:38:33.397Z,61.7
2018-07-02T21:43:30.837Z,61.7
2018-07-02T21:48:28.768Z,62.1
2018-07-02T21:53:27.232Z,62.4
2018-07-02T21:58:25.008Z,62.5
2018-07-02T22:03:22.788Z,62.7
2018-07-02T22:08:20.633Z,62.9
2018-07-02T22:13:17.421Z,63
2018-07-02T22:18:15.275Z,63.7
2018-07-02T22:23:13.512Z,63.7
2018-07-02T22:28:11.547Z,63.7
2018-07-02T22:33:09.923Z,64
2018-07-02T22:38:08.276Z,64
2018-07-02T22:43:07.748Z,64.4
2018-07-02T22:48:05.820Z,64.6
2018-07-02T22:53:03.399Z,64.4
2018-07-02T22:58:00.818Z,64.6
2018-07-02T23:02:58.638Z,64.6
2018-07-02T23:07:56.452Z,64.6
2018-07-02T23:12:54.367Z,64.8
2018-07-02T23:17:52.728Z,64.9
2018-07-02T23:22:50.107Z,65.1
2018-07-02T23:27:47.692Z,65.4
2018-07-02T23:32:45.557Z,65.5
2018-07-02T23:37:42.787Z,65.5
2018-07-02T23:42:40.189Z,65.5
2018-07-02T23:47:38.250Z,65.6
2018-07-02T23:52:36.767Z,65.7
2018-07-02T23:57:35.293Z,65.9
